sensor_id;sensor_type;location;lat;lon;timestamp;temperature;humidity
4651;DHT22;2338;49.602;8.722;2022-09-16T00:00:18;15.30;99.90
4651;DHT22;2338;49.602;8.722;2022-09-16T00:03:04;15.30;99.90
4651;DHT22;2338;49.602;8.722;2022-09-16T00:05:51;15.30;99.90
4651;DHT22;2338;49.602;8.722;2022-09-16T00:08:38;15.40;99.90
4651;DHT22;2338;49.602;8.722;2022-09-16T00:11:24;15.40;99.90
4651;DHT22;2338;49.602;8.722;2022-09-16T00:14:09;15.40;99.90
4651;DHT22;2338;49.602;8.722;2022-09-16T00:16:55;15.50;99.90
4651;DHT22;2338;49.602;8.722;2022-09-16T00:19:41;15.50;99.90
4651;DHT22;2338;49.602;8.722;2022-09-16T00:22:27;15.50;99.90
4651;DHT22;2338;49.602;8.722;2022-09-16T00:25:14;15.50;99.90
4651;DHT22;2338;49.602;8.722;2022-09-16T00:28:00;15.50;99.90
4651;DHT22;2338;49.602;8.722;2022-09-16T00:30:45;15.40;99.90
4651;DHT22;2338;49.602;8.722;2022-09-16T00:33:31;15.40;99.90
4651;DHT22;2338;49.602;8.722;2022-09-16T00:36:18;15.40;99.90
4651;DHT22;2338;49.602;8.722;2022-09-16T00:39:04;15.30;99.90
4651;DHT22;2338;49.602;8.722;2022-09-16T00:41:51;15.40;99.90
4651;DHT22;2338;49.602;8.722;2022-09-16T00:44:58;15.30;99.90
4651;DHT22;2338;49.602;8.722;2022-09-16T00:47:48;15.30;99.90
4651;DHT22;2338;49.602;8.722;2022-09-16T00:50:37;15.30;99.90
4651;DHT22;2338;49.602;8.722;2022-09-16T00:53:27;15.40;99.90
4651;DHT22;2338;49.602;8.722;2022-09-16T00:56:15;15.30;99.90
4651;DHT22;2338;49.602;8.722;2022-09-16T00:59:06;15.30;99.90
4651;DHT22;2338;49.602;8.722;2022-09-16T01:01:54;15.30;99.90
4651;DHT22;2338;49.602;8.722;2022-09-16T01:04:44;15.20;99.90
4651;DHT22;2338;49.602;8.722;2022-09-16T01:07:36;15.20;99.90
4651;DHT22;2338;49.602;8.722;2022-09-16T01:10:24;15.10;99.90
4651;DHT22;2338;49.602;8.722;2022-09-16T01:13:12;15.20;99.90
4651;DHT22;2338;49.602;8.722;2022-09-16T01:16:06;15.20;99.90
4651;DHT22;2338;49.602;8.722;2022-09-16T01:19:00;15.10;99.90
4651;DHT22;2338;49.602;8.722;2022-09-16T01:21:53;15.20;99.90
4651;DHT22;2338;49.602;8.722;2022-09-16T01:24:51;15.20;99.90
4651;DHT22;2338;49.602;8.722;2022-09-16T01:28:01;15.20;99.90
4651;DHT22;2338;49.602;8.722;2022-09-16T01:31:06;15.10;99.90
4651;DHT22;2338;49.602;8.722;2022-09-16T01:34:00;15.10;99.90
4651;DHT22;2338;49.602;8.722;2022-09-16T01:36:51;15.10;99.90
4651;DHT22;2338;49.602;8.722;2022-09-16T01:39:45;15.00;99.90
4651;DHT22;2338;49.602;8.722;2022-09-16T01:42:38;15.00;99.90
4651;DHT22;2338;49.602;8.722;2022-09-16T01:45:31;14.90;99.90
4651;DHT22;2338;49.602;8.722;2022-09-16T01:48:22;15.00;99.90
4651;DHT22;2338;49.602;8.722;2022-09-16T01:51:18;15.00;99.90
4651;DHT22;2338;49.602;8.722;2022-09-16T01:54:08;15.10;99.90
4651;DHT22;2338;49.602;8.722;2022-09-16T01:57:00;15.10;99.90
4651;DHT22;2338;49.602;8.722;2022-09-16T01:59:50;15.10;99.90
4651;DHT22;2338;49.602;8.722;2022-09-16T02:02:40;15.10;99.90
4651;DHT22;2338;49.602;8.722;2022-09-16T02:05:33;15.10;99.90
4651;DHT22;2338;49.602;8.722;2022-09-16T02:08:25;15.10;99.90
4651;DHT22;2338;49.602;8.722;2022-09-16T02:11:13;15.00;99.90
4651;DHT22;2338;49.602;8.722;2022-09-16T02:14:04;15.00;99.90
4651;DHT22;2338;49.602;8.722;2022-09-16T02:16:54;15.10;99.90
4651;DHT22;2338;49.602;8.722;2022-09-16T02:19:43;15.20;99.90
4651;DHT22;2338;49.602;8.722;2022-09-16T02:22:35;15.20;99.90
4651;DHT22;2338;49.602;8.722;2022-09-16T02:25:22;15.30;99.90
4651;DHT22;2338;49.602;8.722;2022-09-16T02:28:10;15.20;99.90
4651;DHT22;2338;49.602;8.722;2022-09-16T02:31:01;15.00;99.90
4651;DHT22;2338;49.602;8.722;2022-09-16T02:33:53;15.00;99.90
4651;DHT22;2338;49.602;8.722;2022-09-16T02:36:41;15.00;99.90
4651;DHT22;2338;49.602;8.722;2022-09-16T02:39:32;14.90;99.90
4651;DHT22;2338;49.602;8.722;2022-09-16T02:42:20;14.80;99.90
4651;DHT22;2338;49.602;8.722;2022-09-16T02:45:07;14.90;99.90
4651;DHT22;2338;49.602;8.722;2022-09-16T02:47:58;15.00;99.90
4651;DHT22;2338;49.602;8.722;2022-09-16T02:50:51;15.00;99.90
4651;DHT22;2338;49.602;8.722;2022-09-16T02:53:44;15.00;99.90
4651;DHT22;2338;49.602;8.722;2022-09-16T02:56:34;15.00;99.90
4651;DHT22;2338;49.602;8.722;2022-09-16T02:59:21;15.00;99.90
4651;DHT22;2338;49.602;8.722;2022-09-16T03:02:09;14.90;99.90
4651;DHT22;2338;49.602;8.722;2022-09-16T03:04:54;14.90;99.90
4651;DHT22;2338;49.602;8.722;2022-09-16T03:07:41;14.90;99.90
4651;DHT22;2338;49.602;8.722;2022-09-16T03:10:30;14.90;99.90
4651;DHT22;2338;49.602;8.722;2022-09-16T03:13:23;15.00;99.90
4651;DHT22;2338;49.602;8.722;2022-09-16T03:16:18;14.90;99.90
4651;DHT22;2338;49.602;8.722;2022-09-16T03:19:16;14.90;99.90
4651;DHT22;2338;49.602;8.722;2022-09-16T03:22:10;14.90;99.90
4651;DHT22;2338;49.602;8.722;2022-09-16T03:25:02;14.90;99.90
4651;DHT22;2338;49.602;8.722;2022-09-16T03:27:53;15.00;99.90
4651;DHT22;2338;49.602;8.722;2022-09-16T03:30:48;14.90;99.90
4651;DHT22;2338;49.602;8.722;2022-09-16T03:33:41;15.00;99.90
4651;DHT22;2338;49.602;8.722;2022-09-16T03:36:33;15.00;99.90
4651;DHT22;2338;49.602;8.722;2022-09-16T03:39:20;15.10;99.90
4651;DHT22;2338;49.602;8.722;2022-09-16T03:42:08;15.00;99.90
4651;DHT22;2338;49.602;8.722;2022-09-16T03:44:54;15.00;99.90
4651;DHT22;2338;49.602;8.722;2022-09-16T03:47:41;15.00;99.90
4651;DHT22;2338;49.602;8.722;2022-09-16T03:50:27;15.00;99.90
4651;DHT22;2338;49.602;8.722;2022-09-16T03:53:13;15.00;99.90
4651;DHT22;2338;49.602;8.722;2022-09-16T03:55:58;15.00;99.90
4651;DHT22;2338;49.602;8.722;2022-09-16T03:58:46;14.90;99.90
4651;DHT22;2338;49.602;8.722;2022-09-16T04:01:32;14.90;99.90
4651;DHT22;2338;49.602;8.722;2022-09-16T04:04:19;14.80;99.90
4651;DHT22;2338;49.602;8.722;2022-09-16T04:07:05;14.80;99.90
4651;DHT22;2338;49.602;8.722;2022-09-16T04:09:51;14.80;99.90
4651;DHT22;2338;49.602;8.722;2022-09-16T04:12:36;14.70;99.90
4651;DHT22;2338;49.602;8.722;2022-09-16T04:15:22;14.70;99.90
4651;DHT22;2338;49.602;8.722;2022-09-16T04:18:08;14.60;99.90
4651;DHT22;2338;49.602;8.722;2022-09-16T04:20:56;14.60;99.90
4651;DHT22;2338;49.602;8.722;2022-09-16T04:23:42;14.60;99.90
4651;DHT22;2338;49.602;8.722;2022-09-16T04:26:28;14.60;99.90
4651;DHT22;2338;49.602;8.722;2022-09-16T04:29:14;14.60;99.90
4651;DHT22;2338;49.602;8.722;2022-09-16T04:32:00;14.70;99.90
4651;DHT22;2338;49.602;8.722;2022-09-16T04:34:46;14.60;99.90
4651;DHT22;2338;49.602;8.722;2022-09-16T04:37:33;14.70;99.90
4651;DHT22;2338;49.602;8.722;2022-09-16T04:40:19;14.70;99.90
4651;DHT22;2338;49.602;8.722;2022-09-16T04:43:05;14.60;99.90
4651;DHT22;2338;49.602;8.722;2022-09-16T04:45:50;14.60;99.90
4651;DHT22;2338;49.602;8.722;2022-09-16T04:48:36;14.60;99.90
4651;DHT22;2338;49.602;8.722;2022-09-16T04:51:22;14.50;99.90
4651;DHT22;2338;49.602;8.722;2022-09-16T04:54:10;14.60;99.90
4651;DHT22;2338;49.602;8.722;2022-09-16T04:56:56;14.50;99.90
4651;DHT22;2338;49.602;8.722;2022-09-16T04:59:41;14.40;99.90
4651;DHT22;2338;49.602;8.722;2022-09-16T05:02:27;14.30;99.90
4651;DHT22;2338;49.602;8.722;2022-09-16T05:05:13;14.30;99.90
4651;DHT22;2338;49.602;8.722;2022-09-16T05:08:01;14.30;99.90
4651;DHT22;2338;49.602;8.722;2022-09-16T05:10:48;14.20;99.90
4651;DHT22;2338;49.602;8.722;2022-09-16T05:13:33;14.30;99.90
4651;DHT22;2338;49.602;8.722;2022-09-16T05:16:20;14.30;99.90
4651;DHT22;2338;49.602;8.722;2022-09-16T05:19:06;14.30;99.90
4651;DHT22;2338;49.602;8.722;2022-09-16T05:21:52;14.30;99.90
4651;DHT22;2338;49.602;8.722;2022-09-16T05:24:38;14.20;99.90
4651;DHT22;2338;49.602;8.722;2022-09-16T05:27:25;14.10;99.90
4651;DHT22;2338;49.602;8.722;2022-09-16T05:30:14;14.10;99.90
4651;DHT22;2338;49.602;8.722;2022-09-16T05:33:00;14.20;99.90
4651;DHT22;2338;49.602;8.722;2022-09-16T05:35:46;14.20;99.90
4651;DHT22;2338;49.602;8.722;2022-09-16T05:38:32;14.20;99.90
4651;DHT22;2338;49.602;8.722;2022-09-16T05:41:17;14.30;99.90
4651;DHT22;2338;49.602;8.722;2022-09-16T05:44:05;14.40;99.90
4651;DHT22;2338;49.602;8.722;2022-09-16T05:46:50;14.50;99.90
4651;DHT22;2338;49.602;8.722;2022-09-16T05:49:36;14.60;99.90
4651;DHT22;2338;49.602;8.722;2022-09-16T05:52:22;14.60;99.90
4651;DHT22;2338;49.602;8.722;2022-09-16T05:55:08;14.70;99.90
4651;DHT22;2338;49.602;8.722;2022-09-16T05:57:54;14.60;99.90
4651;DHT22;2338;49.602;8.722;2022-09-16T06:00:41;14.60;99.90
4651;DHT22;2338;49.602;8.722;2022-09-16T06:03:27;14.50;99.90
4651;DHT22;2338;49.602;8.722;2022-09-16T06:06:19;14.50;99.90
4651;DHT22;2338;49.602;8.722;2022-09-16T06:09:07;14.60;99.90
4651;DHT22;2338;49.602;8.722;2022-09-16T06:11:52;14.60;99.90
4651;DHT22;2338;49.602;8.722;2022-09-16T06:14:38;14.70;99.90
4651;DHT22;2338;49.602;8.722;2022-09-16T06:17:25;14.70;99.90
4651;DHT22;2338;49.602;8.722;2022-09-16T06:20:11;14.80;99.90
4651;DHT22;2338;49.602;8.722;2022-09-16T06:22:58;14.90;99.90
4651;DHT22;2338;49.602;8.722;2022-09-16T06:25:43;14.90;99.90
4651;DHT22;2338;49.602;8.722;2022-09-16T06:28:30;15.00;99.90
4651;DHT22;2338;49.602;8.722;2022-09-16T06:31:17;15.10;99.90
4651;DHT22;2338;49.602;8.722;2022-09-16T06:34:05;15.20;99.90
4651;DHT22;2338;49.602;8.722;2022-09-16T06:36:51;15.20;99.90
4651;DHT22;2338;49.602;8.722;2022-09-16T06:39:37;15.20;99.90
4651;DHT22;2338;49.602;8.722;2022-09-16T06:42:22;15.20;99.90
4651;DHT22;2338;49.602;8.722;2022-09-16T06:45:09;15.30;99.90
4651;DHT22;2338;49.602;8.722;2022-09-16T06:47:58;15.30;99.90
4651;DHT22;2338;49.602;8.722;2022-09-16T06:50:45;15.40;99.90
4651;DHT22;2338;49.602;8.722;2022-09-16T06:53:32;15.50;99.90
4651;DHT22;2338;49.602;8.722;2022-09-16T06:56:19;15.60;99.90
4651;DHT22;2338;49.602;8.722;2022-09-16T06:59:06;15.60;99.90
4651;DHT22;2338;49.602;8.722;2022-09-16T07:01:51;15.70;99.90
4651;DHT22;2338;49.602;8.722;2022-09-16T07:04:37;15.70;99.90
4651;DHT22;2338;49.602;8.722;2022-09-16T07:07:28;15.60;99.90
4651;DHT22;2338;49.602;8.722;2022-09-16T07:10:14;15.50;99.90
4651;DHT22;2338;49.602;8.722;2022-09-16T07:13:00;15.50;99.90
4651;DHT22;2338;49.602;8.722;2022-09-16T07:15:45;15.40;99.90
4651;DHT22;2338;49.602;8.722;2022-09-16T07:18:31;15.40;99.90
4651;DHT22;2338;49.602;8.722;2022-09-16T07:21:19;15.40;99.90
4651;DHT22;2338;49.602;8.722;2022-09-16T07:24:08;15.40;99.90
4651;DHT22;2338;49.602;8.722;2022-09-16T07:26:53;15.40;99.90
4651;DHT22;2338;49.602;8.722;2022-09-16T07:29:39;15.30;99.90
4651;DHT22;2338;49.602;8.722;2022-09-16T07:32:25;15.30;99.90
4651;DHT22;2338;49.602;8.722;2022-09-16T07:35:11;15.40;99.90
4651;DHT22;2338;49.602;8.722;2022-09-16T07:37:56;15.40;99.90
4651;DHT22;2338;49.602;8.722;2022-09-16T07:40:43;15.40;99.90
4651;DHT22;2338;49.602;8.722;2022-09-16T07:43:29;15.50;99.90
4651;DHT22;2338;49.602;8.722;2022-09-16T07:46:16;15.40;99.90
4651;DHT22;2338;49.602;8.722;2022-09-16T07:49:04;15.50;99.90
4651;DHT22;2338;49.602;8.722;2022-09-16T07:51:50;15.50;99.90
4651;DHT22;2338;49.602;8.722;2022-09-16T07:54:36;15.50;99.90
4651;DHT22;2338;49.602;8.722;2022-09-16T07:57:23;15.40;99.90
4651;DHT22;2338;49.602;8.722;2022-09-16T08:00:10;15.40;99.90
4651;DHT22;2338;49.602;8.722;2022-09-16T08:02:56;15.50;99.90
4651;DHT22;2338;49.602;8.722;2022-09-16T08:05:42;15.50;99.90
4651;DHT22;2338;49.602;8.722;2022-09-16T08:08:28;15.50;99.90
4651;DHT22;2338;49.602;8.722;2022-09-16T08:11:14;15.50;99.90
4651;DHT22;2338;49.602;8.722;2022-09-16T08:14:01;15.50;99.90
4651;DHT22;2338;49.602;8.722;2022-09-16T08:16:47;15.60;99.90
4651;DHT22;2338;49.602;8.722;2022-09-16T08:19:34;15.60;99.90
4651;DHT22;2338;49.602;8.722;2022-09-16T08:22:21;15.60;99.90
4651;DHT22;2338;49.602;8.722;2022-09-16T08:25:09;15.60;99.90
4651;DHT22;2338;49.602;8.722;2022-09-16T08:27:54;15.70;99.90
4651;DHT22;2338;49.602;8.722;2022-09-16T08:30:42;15.70;99.90
4651;DHT22;2338;49.602;8.722;2022-09-16T08:33:28;15.60;99.90
4651;DHT22;2338;49.602;8.722;2022-09-16T08:36:16;15.60;99.90
4651;DHT22;2338;49.602;8.722;2022-09-16T08:39:03;15.60;99.90
4651;DHT22;2338;49.602;8.722;2022-09-16T08:45:19;15.70;99.90
4651;DHT22;2338;49.602;8.722;2022-09-16T08:48:20;15.60;99.90
4651;DHT22;2338;49.602;8.722;2022-09-16T08:51:08;15.60;99.90
4651;DHT22;2338;49.602;8.722;2022-09-16T08:53:59;15.60;99.90
4651;DHT22;2338;49.602;8.722;2022-09-16T08:56:46;15.60;99.90
4651;DHT22;2338;49.602;8.722;2022-09-16T08:59:35;15.60;99.90
4651;DHT22;2338;49.602;8.722;2022-09-16T09:02:34;15.80;99.90
4651;DHT22;2338;49.602;8.722;2022-09-16T09:05:28;16.00;99.90
4651;DHT22;2338;49.602;8.722;2022-09-16T09:08:28;16.20;99.90
4651;DHT22;2338;49.602;8.722;2022-09-16T09:11:23;16.30;99.90
4651;DHT22;2338;49.602;8.722;2022-09-16T09:14:27;16.40;99.90
4651;DHT22;2338;49.602;8.722;2022-09-16T09:17:23;16.30;99.90
4651;DHT22;2338;49.602;8.722;2022-09-16T09:20:20;16.30;97.50
4651;DHT22;2338;49.602;8.722;2022-09-16T09:23:21;16.10;99.90
4651;DHT22;2338;49.602;8.722;2022-09-16T09:26:12;16.30;99.90
4651;DHT22;2338;49.602;8.722;2022-09-16T09:29:21;16.40;91.80
4651;DHT22;2338;49.602;8.722;2022-09-16T09:32:20;16.50;93.90
4651;DHT22;2338;49.602;8.722;2022-09-16T09:35:26;16.60;94.60
4651;DHT22;2338;49.602;8.722;2022-09-16T09:38:33;16.70;95.50
4651;DHT22;2338;49.602;8.722;2022-09-16T09:41:26;16.70;88.10
4651;DHT22;2338;49.602;8.722;2022-09-16T09:44:44;16.80;85.80
4651;DHT22;2338;49.602;8.722;2022-09-16T09:47:35;16.50;81.40
4651;DHT22;2338;49.602;8.722;2022-09-16T09:50:27;16.40;82.80
4651;DHT22;2338;49.602;8.722;2022-09-16T09:53:19;16.40;76.80
4651;DHT22;2338;49.602;8.722;2022-09-16T09:56:16;16.40;76.90
4651;DHT22;2338;49.602;8.722;2022-09-16T09:59:08;16.50;84.70
4651;DHT22;2338;49.602;8.722;2022-09-16T10:01:58;16.90;89.20
4651;DHT22;2338;49.602;8.722;2022-09-16T10:04:45;17.20;72.30
4651;DHT22;2338;49.602;8.722;2022-09-16T10:07:31;17.30;66.80
4651;DHT22;2338;49.602;8.722;2022-09-16T10:10:20;17.40;57.00
4651;DHT22;2338;49.602;8.722;2022-09-16T10:13:09;17.20;50.80
4651;DHT22;2338;49.602;8.722;2022-09-16T10:16:06;17.20;53.20
4651;DHT22;2338;49.602;8.722;2022-09-16T10:19:01;17.10;55.90
4651;DHT22;2338;49.602;8.722;2022-09-16T10:21:48;17.20;58.50
4651;DHT22;2338;49.602;8.722;2022-09-16T10:24:37;17.40;60.30
4651;DHT22;2338;49.602;8.722;2022-09-16T10:27:25;17.60;60.70
4651;DHT22;2338;49.602;8.722;2022-09-16T10:30:15;17.80;61.40
4651;DHT22;2338;49.602;8.722;2022-09-16T10:33:03;17.70;57.10
4651;DHT22;2338;49.602;8.722;2022-09-16T10:35:55;17.90;59.30
4651;DHT22;2338;49.602;8.722;2022-09-16T10:38:43;18.00;57.80
4651;DHT22;2338;49.602;8.722;2022-09-16T10:41:32;18.20;61.00
4651;DHT22;2338;49.602;8.722;2022-09-16T10:44:22;18.00;52.80
4651;DHT22;2338;49.602;8.722;2022-09-16T10:47:18;18.10;54.50
4651;DHT22;2338;49.602;8.722;2022-09-16T10:50:06;18.00;57.40
4651;DHT22;2338;49.602;8.722;2022-09-16T10:52:52;17.90;57.60
4651;DHT22;2338;49.602;8.722;2022-09-16T10:55:38;18.10;53.70
4651;DHT22;2338;49.602;8.722;2022-09-16T10:58:24;18.20;51.40
4651;DHT22;2338;49.602;8.722;2022-09-16T11:01:24;18.20;53.30
4651;DHT22;2338;49.602;8.722;2022-09-16T11:04:30;18.20;55.80
4651;DHT22;2338;49.602;8.722;2022-09-16T11:07:35;18.10;56.40
4651;DHT22;2338;49.602;8.722;2022-09-16T11:10:26;18.20;57.00
4651;DHT22;2338;49.602;8.722;2022-09-16T11:16:27;18.30;47.30
4651;DHT22;2338;49.602;8.722;2022-09-16T11:19:20;18.40;53.50
4651;DHT22;2338;49.602;8.722;2022-09-16T11:22:17;18.30;51.50
4651;DHT22;2338;49.602;8.722;2022-09-16T11:25:38;18.40;55.20
4651;DHT22;2338;49.602;8.722;2022-09-16T11:28:50;18.40;48.30
4651;DHT22;2338;49.602;8.722;2022-09-16T11:31:45;18.50;53.10
4651;DHT22;2338;49.602;8.722;2022-09-16T11:34:46;18.80;52.80
4651;DHT22;2338;49.602;8.722;2022-09-16T11:37:41;18.90;48.10
4651;DHT22;2338;49.602;8.722;2022-09-16T11:40:37;19.00;48.60
4651;DHT22;2338;49.602;8.722;2022-09-16T11:46:49;19.00;47.40
4651;DHT22;2338;49.602;8.722;2022-09-16T11:49:51;18.70;48.50
4651;DHT22;2338;49.602;8.722;2022-09-16T11:52:53;18.40;46.00
4651;DHT22;2338;49.602;8.722;2022-09-16T11:55:48;18.20;52.00
4651;DHT22;2338;49.602;8.722;2022-09-16T11:58:37;18.00;52.80
4651;DHT22;2338;49.602;8.722;2022-09-16T12:01:30;17.80;55.60
4651;DHT22;2338;49.602;8.722;2022-09-16T12:04:22;17.60;59.20
4651;DHT22;2338;49.602;8.722;2022-09-16T12:07:13;17.60;74.40
4651;DHT22;2338;49.602;8.722;2022-09-16T12:10:10;17.20;73.40
4651;DHT22;2338;49.602;8.722;2022-09-16T12:13:00;17.10;73.80
4651;DHT22;2338;49.602;8.722;2022-09-16T12:15:50;17.00;84.70
4651;DHT22;2338;49.602;8.722;2022-09-16T12:18:40;16.90;78.40
4651;DHT22;2338;49.602;8.722;2022-09-16T12:21:30;16.90;83.50
4651;DHT22;2338;49.602;8.722;2022-09-16T12:24:21;17.00;88.20
4651;DHT22;2338;49.602;8.722;2022-09-16T12:27:14;17.00;87.80
4651;DHT22;2338;49.602;8.722;2022-09-16T12:30:10;17.20;80.10
4651;DHT22;2338;49.602;8.722;2022-09-16T12:33:01;17.20;72.30
4651;DHT22;2338;49.602;8.722;2022-09-16T12:35:55;17.10;70.00
4651;DHT22;2338;49.602;8.722;2022-09-16T12:38:41;17.00;72.20
4651;DHT22;2338;49.602;8.722;2022-09-16T12:41:55;17.00;70.30
4651;DHT22;2338;49.602;8.722;2022-09-16T12:44:55;17.00;75.80
4651;DHT22;2338;49.602;8.722;2022-09-16T12:47:59;17.00;73.70
4651;DHT22;2338;49.602;8.722;2022-09-16T12:50:55;17.20;83.60
4651;DHT22;2338;49.602;8.722;2022-09-16T12:53:59;17.30;72.00
4651;DHT22;2338;49.602;8.722;2022-09-16T12:57:03;17.30;72.40
4651;DHT22;2338;49.602;8.722;2022-09-16T13:00:04;17.30;72.90
4651;DHT22;2338;49.602;8.722;2022-09-16T13:02:56;17.30;70.60
4651;DHT22;2338;49.602;8.722;2022-09-16T13:05:45;17.40;67.50
4651;DHT22;2338;49.602;8.722;2022-09-16T13:08:32;17.40;60.00
4651;DHT22;2338;49.602;8.722;2022-09-16T13:11:21;17.60;56.20
4651;DHT22;2338;49.602;8.722;2022-09-16T13:14:18;18.00;53.10
4651;DHT22;2338;49.602;8.722;2022-09-16T13:17:09;18.00;46.90
4651;DHT22;2338;49.602;8.722;2022-09-16T13:20:01;18.00;47.30
4651;DHT22;2338;49.602;8.722;2022-09-16T13:23:02;18.00;47.60
4651;DHT22;2338;49.602;8.722;2022-09-16T13:25:50;17.90;52.90
4651;DHT22;2338;49.602;8.722;2022-09-16T13:28:39;17.70;49.90
4651;DHT22;2338;49.602;8.722;2022-09-16T13:31:29;17.80;53.80
4651;DHT22;2338;49.602;8.722;2022-09-16T13:34:17;17.90;55.40
4651;DHT22;2338;49.602;8.722;2022-09-16T13:37:14;17.80;52.00
4651;DHT22;2338;49.602;8.722;2022-09-16T13:40:16;17.70;57.80
4651;DHT22;2338;49.602;8.722;2022-09-16T13:43:10;17.60;51.30
4651;DHT22;2338;49.602;8.722;2022-09-16T13:46:05;17.40;51.80
4651;DHT22;2338;49.602;8.722;2022-09-16T13:48:55;17.30;53.40
4651;DHT22;2338;49.602;8.722;2022-09-16T13:51:44;17.30;57.80
4651;DHT22;2338;49.602;8.722;2022-09-16T13:54:33;17.20;63.80
4651;DHT22;2338;49.602;8.722;2022-09-16T13:57:54;16.80;82.90
4651;DHT22;2338;49.602;8.722;2022-09-16T14:00:46;16.20;99.90
4651;DHT22;2338;49.602;8.722;2022-09-16T14:03:45;15.90;99.90
4651;DHT22;2338;49.602;8.722;2022-09-16T14:06:57;15.60;99.90
4651;DHT22;2338;49.602;8.722;2022-09-16T14:09:58;15.30;99.90
4651;DHT22;2338;49.602;8.722;2022-09-16T14:12:53;15.10;99.90
4651;DHT22;2338;49.602;8.722;2022-09-16T14:15:45;15.20;99.90
4651;DHT22;2338;49.602;8.722;2022-09-16T14:18:33;15.20;99.90
4651;DHT22;2338;49.602;8.722;2022-09-16T14:21:20;15.40;99.90
4651;DHT22;2338;49.602;8.722;2022-09-16T14:24:18;15.50;99.90
4651;DHT22;2338;49.602;8.722;2022-09-16T14:27:05;15.70;99.90
4651;DHT22;2338;49.602;8.722;2022-09-16T14:29:56;15.90;99.90
4651;DHT22;2338;49.602;8.722;2022-09-16T14:32:41;16.20;99.90
4651;DHT22;2338;49.602;8.722;2022-09-16T14:35:28;16.30;99.90
4651;DHT22;2338;49.602;8.722;2022-09-16T14:38:16;16.30;99.90
4651;DHT22;2338;49.602;8.722;2022-09-16T14:41:06;16.30;99.90
4651;DHT22;2338;49.602;8.722;2022-09-16T14:43:53;16.40;99.90
4651;DHT22;2338;49.602;8.722;2022-09-16T14:46:42;16.40;99.90
4651;DHT22;2338;49.602;8.722;2022-09-16T14:49:28;16.40;99.90
4651;DHT22;2338;49.602;8.722;2022-09-16T14:52:17;16.50;99.90
4651;DHT22;2338;49.602;8.722;2022-09-16T14:55:07;16.60;99.90
4651;DHT22;2338;49.602;8.722;2022-09-16T14:58:00;16.60;99.90
4651;DHT22;2338;49.602;8.722;2022-09-16T15:00:48;16.60;99.90
4651;DHT22;2338;49.602;8.722;2022-09-16T15:03:45;16.50;99.90
4651;DHT22;2338;49.602;8.722;2022-09-16T15:06:43;16.60;99.90
4651;DHT22;2338;49.602;8.722;2022-09-16T15:09:37;16.80;99.90
4651;DHT22;2338;49.602;8.722;2022-09-16T15:12:27;17.10;99.90
4651;DHT22;2338;49.602;8.722;2022-09-16T15:15:18;17.30;99.90
4651;DHT22;2338;49.602;8.722;2022-09-16T15:18:08;17.30;99.90
4651;DHT22;2338;49.602;8.722;2022-09-16T15:21:05;17.30;99.90
4651;DHT22;2338;49.602;8.722;2022-09-16T15:23:54;17.00;99.90
4651;DHT22;2338;49.602;8.722;2022-09-16T15:26:41;16.80;99.90
4651;DHT22;2338;49.602;8.722;2022-09-16T15:29:30;16.70;99.90
4651;DHT22;2338;49.602;8.722;2022-09-16T15:32:19;16.70;99.90
4651;DHT22;2338;49.602;8.722;2022-09-16T15:35:20;16.60;99.90
4651;DHT22;2338;49.602;8.722;2022-09-16T15:38:10;16.40;99.90
4651;DHT22;2338;49.602;8.722;2022-09-16T15:41:01;16.40;99.90
4651;DHT22;2338;49.602;8.722;2022-09-16T15:43:47;16.10;99.90
4651;DHT22;2338;49.602;8.722;2022-09-16T15:46:33;16.10;99.90
4651;DHT22;2338;49.602;8.722;2022-09-16T15:49:21;16.10;99.90
4651;DHT22;2338;49.602;8.722;2022-09-16T15:52:09;16.10;99.90
4651;DHT22;2338;49.602;8.722;2022-09-16T15:54:58;15.90;99.90
4651;DHT22;2338;49.602;8.722;2022-09-16T15:57:46;15.50;99.90
4651;DHT22;2338;49.602;8.722;2022-09-16T16:00:56;15.30;99.90
4651;DHT22;2338;49.602;8.722;2022-09-16T16:03:53;15.10;99.90
4651;DHT22;2338;49.602;8.722;2022-09-16T16:06:47;15.10;99.90
4651;DHT22;2338;49.602;8.722;2022-09-16T16:09:36;15.10;99.90
4651;DHT22;2338;49.602;8.722;2022-09-16T16:12:22;15.00;99.90
4651;DHT22;2338;49.602;8.722;2022-09-16T16:15:08;14.90;99.90
4651;DHT22;2338;49.602;8.722;2022-09-16T16:17:57;14.70;99.90
4651;DHT22;2338;49.602;8.722;2022-09-16T16:20:44;14.60;99.90
4651;DHT22;2338;49.602;8.722;2022-09-16T16:23:31;14.60;99.90
4651;DHT22;2338;49.602;8.722;2022-09-16T16:26:17;14.60;99.90
4651;DHT22;2338;49.602;8.722;2022-09-16T16:29:03;14.60;99.90
4651;DHT22;2338;49.602;8.722;2022-09-16T16:32:05;14.70;99.90
4651;DHT22;2338;49.602;8.722;2022-09-16T16:34:51;14.80;99.90
4651;DHT22;2338;49.602;8.722;2022-09-16T16:37:41;14.80;99.90
4651;DHT22;2338;49.602;8.722;2022-09-16T16:40:27;14.60;99.90
4651;DHT22;2338;49.602;8.722;2022-09-16T16:43:13;14.50;99.90
4651;DHT22;2338;49.602;8.722;2022-09-16T16:45:58;14.40;99.90
4651;DHT22;2338;49.602;8.722;2022-09-16T16:48:44;14.50;99.90
4651;DHT22;2338;49.602;8.722;2022-09-16T16:51:30;14.40;99.90
4651;DHT22;2338;49.602;8.722;2022-09-16T16:54:16;14.30;99.90
4651;DHT22;2338;49.602;8.722;2022-09-16T16:57:04;14.20;99.90
4651;DHT22;2338;49.602;8.722;2022-09-16T16:59:50;14.00;99.90
4651;DHT22;2338;49.602;8.722;2022-09-16T17:02:36;14.00;99.90
4651;DHT22;2338;49.602;8.722;2022-09-16T17:05:21;13.90;99.90
4651;DHT22;2338;49.602;8.722;2022-09-16T17:08:07;13.90;99.90
4651;DHT22;2338;49.602;8.722;2022-09-16T17:11:04;13.90;99.90
4651;DHT22;2338;49.602;8.722;2022-09-16T17:13:53;14.00;99.90
4651;DHT22;2338;49.602;8.722;2022-09-16T17:16:41;14.10;99.90
4651;DHT22;2338;49.602;8.722;2022-09-16T17:19:30;13.90;99.90
4651;DHT22;2338;49.602;8.722;2022-09-16T17:22:16;13.70;99.90
4651;DHT22;2338;49.602;8.722;2022-09-16T17:25:01;13.80;99.90
4651;DHT22;2338;49.602;8.722;2022-09-16T17:27:47;13.80;99.90
4651;DHT22;2338;49.602;8.722;2022-09-16T17:30:34;13.70;99.90
4651;DHT22;2338;49.602;8.722;2022-09-16T17:33:20;13.60;99.90
4651;DHT22;2338;49.602;8.722;2022-09-16T17:36:07;13.70;99.90
4651;DHT22;2338;49.602;8.722;2022-09-16T17:38:56;13.40;99.90
4651;DHT22;2338;49.602;8.722;2022-09-16T17:41:43;13.20;99.90
4651;DHT22;2338;49.602;8.722;2022-09-16T17:44:29;13.10;99.90
4651;DHT22;2338;49.602;8.722;2022-09-16T17:47:16;13.10;99.90
4651;DHT22;2338;49.602;8.722;2022-09-16T17:50:01;13.00;99.90
4651;DHT22;2338;49.602;8.722;2022-09-16T17:52:48;13.10;99.90
4651;DHT22;2338;49.602;8.722;2022-09-16T17:55:34;13.10;99.90
4651;DHT22;2338;49.602;8.722;2022-09-16T17:58:19;13.10;99.90
4651;DHT22;2338;49.602;8.722;2022-09-16T18:01:10;13.10;99.90
4651;DHT22;2338;49.602;8.722;2022-09-16T18:03:57;13.00;99.90
4651;DHT22;2338;49.602;8.722;2022-09-16T18:06:44;12.90;99.90
4651;DHT22;2338;49.602;8.722;2022-09-16T18:09:30;12.90;99.90
4651;DHT22;2338;49.602;8.722;2022-09-16T18:12:16;12.80;99.90
4651;DHT22;2338;49.602;8.722;2022-09-16T18:15:01;12.70;99.90
4651;DHT22;2338;49.602;8.722;2022-09-16T18:17:47;12.70;99.90
4651;DHT22;2338;49.602;8.722;2022-09-16T18:20:35;12.60;99.90
4651;DHT22;2338;49.602;8.722;2022-09-16T18:23:20;12.60;99.90
4651;DHT22;2338;49.602;8.722;2022-09-16T18:26:07;12.60;99.90
4651;DHT22;2338;49.602;8.722;2022-09-16T18:28:54;12.60;99.90
4651;DHT22;2338;49.602;8.722;2022-09-16T18:31:43;12.50;99.90
4651;DHT22;2338;49.602;8.722;2022-09-16T18:34:29;12.50;99.90
4651;DHT22;2338;49.602;8.722;2022-09-16T18:37:16;12.50;99.90
4651;DHT22;2338;49.602;8.722;2022-09-16T18:40:02;12.50;99.90